Bruceton Mills, West Virginia
Current Conditions -  °F | °C
As of 9:18 AM on Friday 24 Oct 2014 (Local Time) from KMGW Reporting Station
Haze Haze  
Wind Chill: 45°   Ceiling: Unl
Heat Index: 45°   Visibility: 3mi
Dew Point: 41°   Wind: 3mph
Humidity: 86%   Direction: NA
Pressure: 30.13"   Gusts: NA
Location:  39.66°N, 79.64°W
Report Text: KMGW 241318Z VRB03KT 3SM BR FEW004 07/05 A3013 RMK AO2 T00720050
Loading
Personal Weather Stations






























Interactive Weather Map New forecast layout! Learn more

10-Day Weather Forecast

Advertisements
Track Severe Weather on mobile